createdAt,value
2023-07-10T00:01:14.815Z,3.45
2023-07-10T00:03:41.785Z,3.63
2023-07-10T00:06:13.327Z,3.70
2023-07-10T00:08:41.371Z,3.42
2023-07-10T00:11:19.986Z,3.33
2023-07-10T00:13:46.723Z,3.83
2023-07-10T00:16:15.242Z,3.22
2023-07-10T00:18:42.010Z,3.45
2023-07-10T00:21:08.469Z,3.75
2023-07-10T00:26:25.950Z,3.50
2023-07-10T00:28:56.936Z,3.90
2023-07-10T00:31:26.638Z,3.97
2023-07-10T00:33:53.736Z,3.50
2023-07-10T00:36:29.002Z,4.15
2023-07-10T00:38:55.667Z,3.85
2023-07-10T00:41:27.485Z,4.35
2023-07-10T00:43:58.699Z,4.10
2023-07-10T00:46:29.103Z,3.90
2023-07-10T00:48:57.868Z,3.95
2023-07-10T00:51:25.815Z,3.88
2023-07-10T00:53:52.885Z,3.92
2023-07-10T00:56:20.751Z,4.47
2023-07-10T00:58:49.032Z,3.75
2023-07-10T01:01:15.486Z,4.25
2023-07-10T01:03:42.760Z,4.03
2023-07-10T01:06:18.182Z,4.18
2023-07-10T01:08:50.104Z,3.80
2023-07-10T01:11:17.335Z,3.88
2023-07-10T01:13:45.455Z,3.83
2023-07-10T01:16:12.371Z,3.95
2023-07-10T01:18:40.339Z,4.70
2023-07-10T01:21:14.129Z,4.82
2023-07-10T01:23:40.771Z,4.38
2023-07-10T01:26:08.117Z,4.63
2023-07-10T01:28:35.097Z,4.20
2023-07-10T01:31:02.865Z,4.40
2023-07-10T01:33:32.968Z,4.30
2023-07-10T01:36:00.520Z,4.50
2023-07-10T01:38:36.763Z,4.55
2023-07-10T01:41:06.376Z,4.30
2023-07-10T01:43:32.815Z,4.30
2023-07-10T01:45:59.355Z,4.15
2023-07-10T01:48:28.807Z,4.15
2023-07-10T01:50:55.415Z,4.90
2023-07-10T01:53:21.847Z,4.38
2023-07-10T01:55:48.362Z,4.07
2023-07-10T01:58:14.858Z,4.25
2023-07-10T02:00:42.150Z,3.97
2023-07-10T02:03:08.841Z,4.00
2023-07-10T02:05:35.441Z,4.07
2023-07-10T02:08:01.909Z,3.65
2023-07-10T02:10:39.368Z,3.65
2023-07-10T02:13:10.777Z,3.50
2023-07-10T02:15:37.269Z,3.83
2023-07-10T02:18:03.889Z,3.38
2023-07-10T02:20:30.368Z,3.63
2023-07-10T02:22:56.805Z,3.15
2023-07-10T02:25:23.280Z,3.65
2023-07-10T02:27:51.305Z,2.92
2023-07-10T02:30:18.451Z,3.65
2023-07-10T02:32:45.093Z,2.72
2023-07-10T02:35:11.722Z,3.85
2023-07-10T02:37:38.253Z,3.45
2023-07-10T02:40:05.131Z,3.20
2023-07-10T02:42:31.612Z,3.10
2023-07-10T02:44:58.182Z,2.72
2023-07-10T02:47:24.747Z,2.83
2023-07-10T02:49:51.215Z,2.92
2023-07-10T02:52:17.709Z,2.40
2023-07-10T02:54:44.229Z,2.67
2023-07-10T02:57:10.640Z,3.88
2023-07-10T02:59:37.200Z,3.25
2023-07-10T03:02:03.788Z,3.85
2023-07-10T03:04:30.902Z,3.90
2023-07-10T03:06:57.487Z,3.80
2023-07-10T03:09:23.920Z,4.90
2023-07-10T03:11:50.352Z,4.13
2023-07-10T03:14:16.794Z,4.63
2023-07-10T03:16:43.305Z,3.88
2023-07-10T03:19:09.832Z,3.65
2023-07-10T03:21:36.313Z,3.97
2023-07-10T03:24:04.092Z,4.30
2023-07-10T03:26:30.649Z,3.85
2023-07-10T03:29:11.332Z,3.88
2023-07-10T03:31:38.190Z,3.85
2023-07-10T03:34:05.523Z,3.75
2023-07-10T03:36:31.979Z,4.18
2023-07-10T03:38:58.805Z,3.70
2023-07-10T03:41:25.367Z,4.35
2023-07-10T03:43:51.871Z,4.25
2023-07-10T03:46:18.414Z,4.35
2023-07-10T03:48:45.380Z,4.13
2023-07-10T03:51:11.884Z,4.20
2023-07-10T03:53:38.386Z,4.40
2023-07-10T03:56:05.177Z,4.30
2023-07-10T03:58:32.910Z,3.67
2023-07-10T04:01:01.245Z,4.22
2023-07-10T04:03:32.883Z,4.78
2023-07-10T04:05:59.609Z,3.88
2023-07-10T04:08:28.836Z,4.18
2023-07-10T04:10:56.247Z,3.70
2023-07-10T04:13:22.923Z,4.32
2023-07-10T04:15:59.568Z,4.70
2023-07-10T04:18:36.143Z,3.88
2023-07-10T04:21:04.467Z,3.67
2023-07-10T04:23:30.969Z,3.83
2023-07-10T04:25:57.524Z,4.35
2023-07-10T04:28:24.438Z,4.28
2023-07-10T04:30:51.571Z,3.65
2023-07-10T04:33:19.069Z,3.28
2023-07-10T04:35:52.027Z,3.60
2023-07-10T04:38:18.461Z,4.05
2023-07-10T04:40:55.172Z,3.75
2023-07-10T04:43:21.811Z,3.53
2023-07-10T04:45:48.252Z,4.32
2023-07-10T04:48:14.852Z,4.38
2023-07-10T04:50:44.973Z,4.15
2023-07-10T04:53:11.439Z,3.95
2023-07-10T04:55:37.917Z,4.38
2023-07-10T04:58:04.370Z,3.83
2023-07-10T05:00:31.804Z,4.32
2023-07-10T05:02:58.328Z,3.95
2023-07-10T05:05:24.811Z,3.42
2023-07-10T05:07:51.363Z,4.20
2023-07-10T05:10:17.822Z,4.07
2023-07-10T05:12:44.260Z,4.38
2023-07-10T05:15:10.991Z,4.43
2023-07-10T05:17:37.437Z,4.18
2023-07-10T05:20:04.118Z,4.32
2023-07-10T05:22:30.596Z,4.03
2023-07-10T05:24:57.303Z,3.90
2023-07-10T05:27:23.763Z,4.63
2023-07-10T05:29:50.376Z,4.57
2023-07-10T05:32:16.909Z,5.15
2023-07-10T05:34:43.642Z,4.55
2023-07-10T05:37:11.318Z,4.95
2023-07-10T05:39:37.734Z,4.78
2023-07-10T05:42:04.750Z,5.05
2023-07-10T05:44:31.193Z,5.03
2023-07-10T05:46:57.663Z,5.40
2023-07-10T05:49:25.207Z,4.90
2023-07-10T05:51:54.708Z,4.85
2023-07-10T05:54:21.388Z,5.03
2023-07-10T05:56:48.376Z,5.10
2023-07-10T05:59:15.438Z,4.72
2023-07-10T06:01:42.105Z,4.50
2023-07-10T06:04:08.723Z,5.13
2023-07-10T06:06:35.388Z,5.25
2023-07-10T06:09:02.036Z,4.90
2023-07-10T06:11:28.505Z,5.05
2023-07-10T06:13:54.986Z,5.10
2023-07-10T06:16:21.618Z,5.00
2023-07-10T06:18:48.126Z,4.97
2023-07-10T06:21:14.684Z,4.50
2023-07-10T06:23:41.120Z,4.43
2023-07-10T06:26:07.909Z,4.20
2023-07-10T06:28:35.001Z,4.65
2023-07-10T06:31:03.666Z,4.70
2023-07-10T06:33:30.870Z,4.38
2023-07-10T06:35:57.491Z,3.88
2023-07-10T06:38:26.429Z,4.88
2023-07-10T06:40:53.076Z,4.10
2023-07-10T06:43:20.179Z,4.03
2023-07-10T06:45:47.117Z,4.28
2023-07-10T06:48:14.226Z,3.90
2023-07-10T06:50:41.075Z,3.78
2023-07-10T06:53:19.657Z,3.58
2023-07-10T06:55:55.844Z,4.40
2023-07-10T06:58:22.328Z,3.65
2023-07-10T07:00:48.892Z,4.30
2023-07-10T07:03:15.612Z,3.88
2023-07-10T07:05:45.596Z,3.40
2023-07-10T07:08:12.132Z,3.17
2023-07-10T07:10:42.319Z,3.17
2023-07-10T07:13:08.969Z,4.40
2023-07-10T07:15:35.486Z,3.55
2023-07-10T07:18:02.273Z,3.83
2023-07-10T07:20:28.778Z,3.45
2023-07-10T07:22:55.290Z,3.42
2023-07-10T07:25:21.796Z,3.08
2023-07-10T07:27:48.253Z,3.33
2023-07-10T07:30:14.865Z,3.47
2023-07-10T07:32:41.859Z,3.08
2023-07-10T07:35:08.636Z,3.05
2023-07-10T07:37:35.174Z,3.10
2023-07-10T07:40:02.880Z,3.15
2023-07-10T07:42:29.501Z,2.75
2023-07-10T07:44:56.375Z,2.50
2023-07-10T07:47:22.932Z,3.60
2023-07-10T07:49:49.462Z,3.00
2023-07-10T07:52:15.944Z,3.53
2023-07-10T07:54:43.216Z,2.83
2023-07-10T07:57:09.731Z,2.45
2023-07-10T07:59:36.324Z,2.45
2023-07-10T08:02:02.884Z,2.22
2023-07-10T08:04:29.423Z,2.30
2023-07-10T08:06:57.531Z,2.67
2023-07-10T08:09:24.091Z,2.15
2023-07-10T08:11:50.645Z,3.00
2023-07-10T08:14:17.126Z,2.65
2023-07-10T08:16:43.706Z,2.00
2023-07-10T08:19:10.276Z,1.92
2023-07-10T08:21:36.738Z,2.20
2023-07-10T08:24:03.245Z,2.10
2023-07-10T08:26:31.437Z,1.80
2023-07-10T08:28:58.043Z,1.90
2023-07-10T08:31:25.722Z,2.10
2023-07-10T08:33:52.315Z,1.92
2023-07-10T08:36:18.770Z,1.90
2023-07-10T08:38:46.357Z,1.70
2023-07-10T08:41:18.679Z,1.75
2023-07-10T08:43:45.488Z,2.33
2023-07-10T08:46:15.423Z,2.13
2023-07-10T08:48:42.033Z,1.77
2023-07-10T08:51:16.624Z,1.67
2023-07-10T08:53:44.737Z,1.70
2023-07-10T08:56:18.519Z,2.10
2023-07-10T08:58:45.004Z,1.58
2023-07-10T09:01:18.118Z,1.67
2023-07-10T09:03:45.943Z,1.80
2023-07-10T09:06:26.712Z,1.83
2023-07-10T09:08:54.966Z,1.92
2023-07-10T09:11:21.744Z,2.05
2023-07-10T09:13:51.381Z,2.22
2023-07-10T09:16:19.264Z,2.08
2023-07-10T09:18:54.933Z,1.92
2023-07-10T09:21:22.934Z,1.83
2023-07-10T09:23:50.069Z,2.13
2023-07-10T09:26:35.487Z,2.90
2023-07-10T09:32:24.536Z,1.80
2023-07-10T09:38:24.289Z,2.38
2023-07-10T09:40:51.592Z,2.10
2023-07-10T09:43:20.536Z,2.50
2023-07-10T09:45:51.104Z,1.90
2023-07-10T09:48:25.680Z,2.80
2023-07-10T09:50:53.153Z,2.55
2023-07-10T09:53:46.439Z,2.03
2023-07-10T09:58:46.505Z,2.05
2023-07-10T10:01:13.267Z,2.00
2023-07-10T10:03:43.025Z,2.10
2023-07-10T10:06:19.874Z,2.63
2023-07-10T10:08:47.508Z,2.63
2023-07-10T10:11:14.279Z,2.47
2023-07-10T10:13:42.687Z,2.38
2023-07-10T10:16:15.164Z,2.45
2023-07-10T10:18:59.585Z,2.28
2023-07-10T10:21:26.749Z,2.42
2023-07-10T10:23:56.156Z,2.03
2023-07-10T10:26:33.275Z,2.22
2023-07-10T10:29:07.673Z,2.10
2023-07-10T10:31:44.175Z,2.50
2023-07-10T10:34:10.689Z,2.42
2023-07-10T10:37:00.178Z,1.67
2023-07-10T10:39:38.236Z,2.13
2023-07-10T10:42:08.046Z,2.00
2023-07-10T10:44:46.883Z,2.60
2023-07-10T10:47:13.413Z,1.95
2023-07-10T10:49:39.907Z,2.63
2023-07-10T10:52:18.683Z,1.75
2023-07-10T10:54:54.354Z,2.00
2023-07-10T10:57:30.310Z,2.42
2023-07-10T11:00:06.457Z,2.60
2023-07-10T11:02:39.603Z,2.00
2023-07-10T11:05:09.105Z,2.30
2023-07-10T11:07:36.277Z,2.97
2023-07-10T11:10:04.281Z,2.28
2023-07-10T11:12:32.696Z,2.47
2023-07-10T11:15:14.379Z,1.90
2023-07-10T11:17:41.707Z,2.10
2023-07-10T11:20:12.735Z,2.58
2023-07-10T11:22:48.742Z,2.53
2023-07-10T11:25:30.654Z,1.70
2023-07-10T11:28:01.423Z,1.80
2023-07-10T11:30:32.733Z,2.30
2023-07-10T11:33:02.311Z,2.28
2023-07-10T11:35:30.277Z,1.90
2023-07-10T11:38:02.979Z,1.90
2023-07-10T11:40:29.586Z,2.08
2023-07-10T11:42:56.795Z,1.98
2023-07-10T11:45:27.341Z,1.80
2023-07-10T11:47:53.986Z,2.20
2023-07-10T11:50:25.392Z,2.15
2023-07-10T11:53:06.382Z,2.15
2023-07-10T11:55:32.853Z,2.00
2023-07-10T11:58:21.892Z,2.25
2023-07-10T12:00:48.648Z,2.20
2023-07-10T12:03:15.152Z,2.95
2023-07-10T12:05:41.645Z,1.83
2023-07-10T12:08:08.132Z,2.03
2023-07-10T12:10:39.052Z,2.15
2023-07-10T12:13:24.392Z,1.60
2023-07-10T12:15:52.304Z,1.67
2023-07-10T12:18:27.394Z,1.88
2023-07-10T12:20:54.709Z,2.08
2023-07-10T12:23:21.351Z,1.50
2023-07-10T12:25:48.714Z,1.23
2023-07-10T12:28:25.219Z,1.75
2023-07-10T12:30:54.274Z,2.15
2023-07-10T12:33:32.038Z,1.92
2023-07-10T12:36:27.730Z,1.90
2023-07-10T12:38:55.365Z,1.83
2023-07-10T12:41:23.682Z,1.67
2023-07-10T12:44:01.692Z,1.80
2023-07-10T12:46:29.692Z,1.73
2023-07-10T12:49:05.358Z,2.42
2023-07-10T12:51:38.006Z,1.73
2023-07-10T12:54:04.769Z,1.63
2023-07-10T12:56:32.654Z,2.05
2023-07-10T12:59:06.685Z,1.83
2023-07-10T13:01:36.932Z,1.73
2023-07-10T13:04:06.949Z,1.85
2023-07-10T13:06:34.689Z,1.42
2023-07-10T13:09:02.684Z,1.05
2023-07-10T13:11:41.490Z,1.50
2023-07-10T13:14:15.316Z,1.70
2023-07-10T13:16:48.685Z,1.63
2023-07-10T13:21:41.777Z,2.03
2023-07-10T13:24:08.481Z,1.52
2023-07-10T13:26:35.113Z,1.58
2023-07-10T13:29:01.708Z,1.63
2023-07-10T13:31:30.985Z,1.38
2023-07-10T13:33:57.549Z,1.63
2023-07-10T13:36:25.882Z,1.50
2023-07-10T13:38:52.699Z,1.48
2023-07-10T13:41:20.576Z,1.33
2023-07-10T13:43:49.094Z,1.40
2023-07-10T13:46:19.231Z,1.63
2023-07-10T13:48:46.260Z,2.00
2023-07-10T13:51:13.248Z,1.25
2023-07-10T13:53:39.792Z,1.10
2023-07-10T13:56:15.042Z,1.70
2023-07-10T13:58:41.597Z,1.55
2023-07-10T14:01:09.802Z,1.45
2023-07-10T14:03:36.843Z,1.65
2023-07-10T14:06:03.561Z,1.70
2023-07-10T14:08:31.380Z,1.15
2023-07-10T14:11:00.455Z,1.48
2023-07-10T14:13:27.200Z,1.73
2023-07-10T14:15:55.338Z,1.60
2023-07-10T14:18:23.307Z,1.40
2023-07-10T14:20:49.984Z,1.60
2023-07-10T14:23:17.599Z,1.20
2023-07-10T14:25:44.766Z,1.42
2023-07-10T14:28:15.750Z,1.73
2023-07-10T14:30:44.021Z,1.70
2023-07-10T14:33:11.136Z,1.65
2023-07-10T14:35:38.128Z,1.67
2023-07-10T14:38:21.591Z,2.05
2023-07-10T14:40:49.009Z,1.42
2023-07-10T14:43:15.711Z,1.63
2023-07-10T14:45:51.487Z,1.45
2023-07-10T14:48:23.483Z,1.33
2023-07-10T14:50:50.264Z,1.58
2023-07-10T14:53:18.856Z,1.55
2023-07-10T14:55:45.883Z,1.38
2023-07-10T14:58:17.332Z,1.75
2023-07-10T15:00:45.141Z,1.80
2023-07-10T15:03:15.606Z,1.70
2023-07-10T15:05:43.498Z,1.60
2023-07-10T15:08:19.611Z,1.65
2023-07-10T15:10:46.248Z,1.33
2023-07-10T15:13:16.749Z,1.58
2023-07-10T15:15:43.322Z,1.50
2023-07-10T15:18:14.395Z,1.70
2023-07-10T15:20:40.839Z,2.05
2023-07-10T15:23:15.749Z,1.58
2023-07-10T15:25:42.197Z,1.70
2023-07-10T15:28:08.956Z,1.42
2023-07-10T15:30:35.503Z,1.50
2023-07-10T15:33:03.480Z,1.63
2023-07-10T15:35:30.336Z,1.52
2023-07-10T15:37:56.864Z,1.70
2023-07-10T15:40:24.691Z,2.13
2023-07-10T15:42:53.865Z,1.80
2023-07-10T15:45:20.771Z,1.80
2023-07-10T15:47:48.534Z,1.73
2023-07-10T15:50:16.327Z,1.83
2023-07-10T15:52:44.058Z,1.70
2023-07-10T15:55:32.717Z,1.85
2023-07-10T15:57:59.653Z,1.80
2023-07-10T16:00:29.569Z,1.92
2023-07-10T16:02:56.372Z,2.22
2023-07-10T16:05:24.341Z,1.88
2023-07-10T16:07:51.463Z,1.70
2023-07-10T16:10:18.112Z,1.77
2023-07-10T16:12:45.969Z,2.35
2023-07-10T16:15:22.341Z,1.65
2023-07-10T16:17:50.338Z,1.88
2023-07-10T16:20:18.255Z,2.08
2023-07-10T16:23:11.360Z,1.58
2023-07-10T16:25:37.826Z,1.70
2023-07-10T16:28:04.407Z,1.30
2023-07-10T16:30:31.108Z,1.90
2023-07-10T16:32:57.697Z,1.52
2023-07-10T16:35:25.338Z,2.03
2023-07-10T16:37:52.697Z,2.03
2023-07-10T16:40:23.840Z,1.73
2023-07-10T16:42:55.606Z,2.38
2023-07-10T16:45:23.567Z,1.92
2023-07-10T16:47:51.662Z,1.45
2023-07-10T16:50:20.020Z,1.90
2023-07-10T16:52:46.782Z,1.95
2023-07-10T16:55:17.753Z,2.05
2023-07-10T16:57:45.204Z,1.73
2023-07-10T17:00:12.749Z,2.10
2023-07-10T17:02:39.271Z,1.83
2023-07-10T17:05:06.050Z,1.88
2023-07-10T17:07:32.540Z,1.80
2023-07-10T17:09:59.164Z,1.98
2023-07-10T17:12:25.847Z,2.00
2023-07-10T17:14:54.729Z,1.67
2023-07-10T17:17:22.450Z,1.92
2023-07-10T17:19:49.395Z,2.22
2023-07-10T17:22:17.897Z,2.33
2023-07-10T17:24:44.779Z,1.70
2023-07-10T17:27:11.259Z,1.50
2023-07-10T17:29:37.770Z,3.00
2023-07-10T17:32:04.670Z,2.00
2023-07-10T17:34:31.163Z,2.03
2023-07-10T17:36:58.213Z,2.10
2023-07-10T17:39:25.326Z,1.70
2023-07-10T17:41:53.002Z,1.67
2023-07-10T17:44:25.113Z,2.03
2023-07-10T17:46:52.572Z,2.35
2023-07-10T17:49:19.775Z,2.28
2023-07-10T17:51:46.717Z,1.60
2023-07-10T17:54:23.476Z,1.80
2023-07-10T17:56:50.132Z,1.88
2023-07-10T17:59:16.683Z,1.50
2023-07-10T18:01:43.659Z,1.63
2023-07-10T18:04:30.402Z,1.90
2023-07-10T18:06:56.961Z,1.65
2023-07-10T18:09:25.341Z,1.73
2023-07-10T18:11:52.283Z,1.85
2023-07-10T18:14:18.864Z,1.52
2023-07-10T18:16:45.483Z,1.63
2023-07-10T18:19:15.967Z,1.95
2023-07-10T18:21:43.924Z,1.67
2023-07-10T18:24:15.704Z,1.67
2023-07-10T18:26:42.376Z,1.70
2023-07-10T18:29:09.657Z,1.67
2023-07-10T18:31:36.174Z,1.92
2023-07-10T18:34:02.725Z,1.90
2023-07-10T18:36:32.232Z,2.17
2023-07-10T18:38:59.217Z,1.50
2023-07-10T18:41:26.861Z,1.70
2023-07-10T18:43:54.170Z,1.90
2023-07-10T18:46:22.610Z,1.92
2023-07-10T18:48:49.565Z,1.85
2023-07-10T18:51:28.338Z,2.20
2023-07-10T18:53:56.715Z,1.60
2023-07-10T18:56:23.189Z,1.70
2023-07-10T18:58:49.833Z,1.88
2023-07-10T19:01:17.305Z,2.20
2023-07-10T19:03:44.778Z,1.67
2023-07-10T19:06:20.334Z,1.70
2023-07-10T19:08:47.161Z,1.33
2023-07-10T19:11:14.612Z,1.50
2023-07-10T19:13:43.703Z,1.63
2023-07-10T19:16:22.068Z,1.88
2023-07-10T19:18:51.773Z,2.13
2023-07-10T19:21:18.233Z,1.95
2023-07-10T19:23:44.709Z,1.77
2023-07-10T19:26:11.201Z,1.40
2023-07-10T19:28:37.755Z,1.40
2023-07-10T19:31:05.401Z,1.90
2023-07-10T19:33:37.610Z,2.15
2023-07-10T19:36:04.597Z,1.90
2023-07-10T19:38:31.956Z,1.80
2023-07-10T19:41:00.088Z,2.10
2023-07-10T19:43:26.984Z,2.33
2023-07-10T19:45:54.528Z,1.95
2023-07-10T19:48:22.446Z,1.90
2023-07-10T19:50:50.091Z,2.38
2023-07-10T19:53:18.401Z,2.58
2023-07-10T19:55:46.464Z,2.35
2023-07-10T19:58:18.083Z,3.10
2023-07-10T20:00:45.139Z,1.90
2023-07-10T20:03:14.983Z,2.53
2023-07-10T20:05:41.960Z,1.73
2023-07-10T20:08:12.564Z,2.10
2023-07-10T20:10:39.010Z,2.35
2023-07-10T20:13:11.651Z,1.73
2023-07-10T20:15:38.194Z,1.55
2023-07-10T20:18:04.771Z,2.13
2023-07-10T20:20:32.927Z,1.70
2023-07-10T20:22:59.534Z,1.77
2023-07-10T20:25:26.073Z,1.90
2023-07-10T20:27:52.699Z,2.03
2023-07-10T20:30:20.708Z,1.83
2023-07-10T20:32:47.319Z,2.28
2023-07-10T20:35:17.104Z,1.65
2023-07-10T20:37:44.155Z,2.55
2023-07-10T20:40:14.919Z,2.25
2023-07-10T20:42:41.466Z,1.90
2023-07-10T20:45:14.966Z,2.47
2023-07-10T20:47:46.867Z,2.08
2023-07-10T20:50:14.547Z,2.33
2023-07-10T20:52:44.699Z,2.10
2023-07-10T20:55:13.916Z,2.50
2023-07-10T20:57:44.136Z,2.13
2023-07-10T21:00:15.138Z,2.30
2023-07-10T21:02:41.768Z,2.22
2023-07-10T21:05:09.239Z,2.25
2023-07-10T21:07:35.838Z,2.30
2023-07-10T21:10:02.286Z,2.20
2023-07-10T21:12:29.845Z,2.70
2023-07-10T21:14:56.687Z,2.38
2023-07-10T21:17:25.384Z,1.80
2023-07-10T21:19:52.000Z,2.10
2023-07-10T21:22:19.082Z,2.22
2023-07-10T21:24:48.427Z,1.92
2023-07-10T21:27:18.824Z,1.90
2023-07-10T21:29:46.093Z,2.45
2023-07-10T21:32:17.492Z,2.30
2023-07-10T21:34:44.246Z,2.40
2023-07-10T21:37:10.772Z,2.25
2023-07-10T21:39:37.210Z,2.08
2023-07-10T21:42:04.165Z,2.63
2023-07-10T21:44:30.795Z,2.30
2023-07-10T21:46:57.368Z,2.45
2023-07-10T21:49:23.848Z,2.88
2023-07-10T21:51:50.293Z,2.20
2023-07-10T21:54:16.825Z,2.15
2023-07-10T21:56:44.220Z,2.28
2023-07-10T21:59:18.692Z,2.05
2023-07-10T22:01:45.339Z,2.20
2023-07-10T22:04:12.017Z,2.05
2023-07-10T22:06:43.325Z,1.80
2023-07-10T22:09:10.191Z,2.25
2023-07-10T22:11:38.276Z,2.25
2023-07-10T22:14:04.781Z,2.17
2023-07-10T22:16:32.224Z,2.42
2023-07-10T22:19:00.572Z,2.13
2023-07-10T22:21:28.515Z,2.58
2023-07-10T22:23:55.131Z,2.50
2023-07-10T22:26:22.019Z,2.63
2023-07-10T22:28:48.619Z,2.40
2023-07-10T22:31:25.718Z,2.55
2023-07-10T22:33:52.412Z,2.72
2023-07-10T22:36:21.923Z,3.15
2023-07-10T22:38:48.716Z,3.28
2023-07-10T22:41:16.993Z,2.70
2023-07-10T22:43:47.047Z,3.08
2023-07-10T22:46:15.435Z,3.45
2023-07-10T22:48:42.263Z,3.40
2023-07-10T22:51:10.126Z,3.42
2023-07-10T22:53:38.357Z,3.47
2023-07-10T22:56:12.391Z,3.88
2023-07-10T22:58:39.108Z,3.30
2023-07-10T23:01:05.692Z,3.30
2023-07-10T23:03:32.730Z,3.85
2023-07-10T23:05:59.515Z,3.53
2023-07-10T23:08:25.995Z,3.42
2023-07-10T23:10:52.502Z,3.42
2023-07-10T23:13:18.979Z,3.55
2023-07-10T23:15:45.526Z,3.45
2023-07-10T23:18:11.955Z,3.67
2023-07-10T23:20:38.875Z,3.80
2023-07-10T23:23:05.675Z,3.95
2023-07-10T23:25:32.149Z,3.70
2023-07-10T23:27:58.771Z,3.53
2023-07-10T23:30:25.226Z,3.10
2023-07-10T23:32:52.268Z,3.60
2023-07-10T23:35:19.018Z,3.42
2023-07-10T23:37:46.037Z,3.35
2023-07-10T23:40:22.412Z,3.38
2023-07-10T23:42:49.189Z,3.70
2023-07-10T23:45:16.617Z,3.47
2023-07-10T23:47:44.028Z,4.30
2023-07-10T23:50:11.419Z,3.67
2023-07-10T23:52:38.262Z,4.05
2023-07-10T23:55:07.892Z,4.05
2023-07-10T23:57:34.796Z,3.47
